RKJK/KUV METAR and TAF weather

Enter ICAO airport designator
Station Type Date Time Source
RKJK METAR 2022/11/30 17:23 UTC NOAA

RKJK 301723Z 05008KT 10SM BKN030 M03/M10 A3048 RMK AO2A SNE23 SLP327


Station Type Date Time Source
RKJK Decoded METAR 2022/11/30 17:23 UTC NOAA

Kunsan Ab, Korea, South (RKJK) 35-55N 126-37E 10M
Nov 30, 2022 - 12:23 PM EST / 2022.11.30 1723 UTC
Wind: from the NE (050 degrees) at 9 MPH (8 KT):0
Visibility: 10 mile(s):0
Sky conditions: mostly cloudy
Temperature: 26 F (-3 C)
Windchill: 17 F (-8 C):1
Dew Point: 14 F (-10 C)
Relative Humidity: 58%
Pressure (altimeter): 30.48 in. Hg (1032 hPa)
ob: RKJK 301723Z 05008KT 10SM BKN030 M03/M10 A3048 RMK AO2A SNE23 SLP327
cycle: 17

Station Type Date Time Source
RKJK TAF 2022/11/30 12:18 UTC NOAA

TAF TAF
AMD RKJK 301210Z 3012/0114 03010G15KT 9000 -SN OVC030 620305 510003 QNH3048INS
BECMG 3014/3016 03010G15KT 8000 -SN OVC020 620206 510003 QNH3046INS
BECMG 3016/3018 03010G15KT 4800 -SN OVC025 620256 510003 QNH3046INS
BECMG 3020/3022 04010G15KT 6000 -SN SCT025 BKN030 620305 QNH3042INS
BECMG 0100/0102 04006KT 8000 -SN SCT020 BKN030 620303 QNH3040INS
BECMG 0102/0104 VRB06KT 9999 NSW BKN030 620303 QNH3035INS TX01/0105Z TNM04/3023Z

Example: see airport list